createdAt,value
2018-06-05T00:00:44.769Z,25.90
2018-06-05T00:03:13.370Z,24.97
2018-06-05T00:05:42.215Z,24.67
2018-06-05T00:08:10.942Z,24.77
2018-06-05T00:10:39.558Z,24.80
2018-06-05T00:13:08.157Z,25.77
2018-06-05T00:15:37.050Z,24.23
2018-06-05T00:18:05.774Z,25.70
2018-06-05T00:20:34.595Z,25.47
2018-06-05T00:23:03.553Z,25.33
2018-06-05T00:25:32.307Z,25.83
2018-06-05T00:28:01.162Z,25.23
2018-06-05T00:30:30.138Z,25.97
2018-06-05T00:32:58.886Z,24.73
2018-06-05T00:35:27.738Z,28.60
2018-06-05T00:37:56.471Z,26.63
2018-06-05T00:40:25.094Z,29.40
2018-06-05T00:42:53.923Z,26.67
2018-06-05T00:45:22.653Z,25.70
2018-06-05T00:47:51.257Z,24.60
2018-06-05T00:50:20.075Z,23.63
2018-06-05T00:52:49.023Z,27.47
2018-06-05T00:55:17.729Z,26.37
2018-06-05T00:57:46.558Z,28.07
2018-06-05T01:00:15.289Z,27.60
2018-06-05T01:02:43.881Z,24.90
2018-06-05T01:05:12.686Z,25.87
2018-06-05T01:07:41.658Z,27.40
2018-06-05T01:10:10.354Z,25.57
2018-06-05T01:12:38.914Z,27.67
2018-06-05T01:15:07.754Z,26.20
2018-06-05T01:17:36.470Z,27.93
2018-06-05T01:20:05.311Z,27.80
2018-06-05T01:22:34.255Z,27.10
2018-06-05T01:25:02.986Z,27.67
2018-06-05T01:27:31.826Z,29.20
2018-06-05T01:30:00.803Z,29.83
2018-06-05T01:32:29.526Z,28.33
2018-06-05T01:34:58.366Z,28.93
2018-06-05T01:37:27.122Z,30.67
2018-06-05T01:39:55.725Z,31.13
2018-06-05T01:42:24.545Z,28.83
2018-06-05T01:44:53.520Z,32.90
2018-06-05T01:47:22.231Z,31.27
2018-06-05T01:49:51.103Z,30.37
2018-06-05T01:52:19.830Z,30.57
2018-06-05T01:54:48.438Z,30.67
2018-06-05T01:57:17.283Z,31.50
2018-06-05T01:59:46.031Z,31.27
2018-06-05T02:02:14.643Z,33.20
2018-06-05T02:04:43.462Z,30.97
2018-06-05T02:07:12.438Z,32.97
2018-06-05T02:09:41.161Z,31.30
2018-06-05T02:12:09.991Z,29.53
2018-06-05T02:14:38.721Z,30.40
2018-06-05T02:17:07.302Z,31.33
2018-06-05T02:19:36.146Z,31.37
2018-06-05T02:22:05.111Z,31.57
2018-06-05T02:24:33.838Z,35.13
2018-06-05T02:27:02.703Z,31.83
2018-06-05T02:29:31.422Z,31.40
2018-06-05T02:32:00.035Z,31.37
2018-06-05T02:34:28.882Z,31.83
2018-06-05T02:36:57.843Z,33.80
2018-06-05T02:39:26.790Z,34.37
2018-06-05T02:41:55.766Z,35.00
2018-06-05T02:44:24.523Z,36.83
2018-06-05T02:46:53.403Z,34.20
2018-06-05T02:49:22.387Z,33.10
2018-06-05T02:51:51.129Z,36.77
2018-06-05T02:54:19.986Z,35.03
2018-06-05T02:56:48.703Z,35.93
2018-06-05T02:59:17.297Z,35.30
2018-06-05T03:01:46.144Z,34.83
2018-06-05T03:04:15.127Z,33.13
2018-06-05T03:06:44.079Z,32.30
2018-06-05T03:09:12.824Z,34.23
2018-06-05T03:11:41.431Z,37.60
2018-06-05T03:14:10.065Z,37.67
2018-06-05T03:16:38.892Z,37.90
2018-06-05T03:19:07.832Z,35.77
2018-06-05T03:21:36.802Z,37.10
2018-06-05T03:24:05.758Z,36.10
2018-06-05T03:26:34.473Z,39.93
2018-06-05T03:29:03.315Z,37.93
2018-06-05T03:31:32.282Z,37.00
2018-06-05T03:34:01.261Z,36.87
2018-06-05T03:36:30.215Z,32.97
2018-06-05T03:38:58.982Z,35.43
2018-06-05T03:41:27.932Z,34.57
2018-06-05T03:43:56.670Z,33.77
2018-06-05T03:46:25.298Z,33.07
2018-06-05T03:48:54.114Z,34.90
2018-06-05T03:51:23.082Z,33.13
2018-06-05T03:53:52.801Z,35.47
2018-06-05T03:56:21.386Z,35.50
2018-06-05T03:58:50.002Z,34.57
2018-06-05T04:01:18.594Z,36.17
2018-06-05T04:03:47.423Z,36.57
2018-06-05T04:06:16.146Z,36.17
2018-06-05T04:08:45.019Z,35.50
2018-06-05T04:11:13.991Z,36.23
2018-06-05T04:13:43.159Z,34.20
2018-06-05T04:16:12.671Z,36.30
2018-06-05T04:18:41.619Z,34.20
2018-06-05T04:21:10.338Z,34.70
2018-06-05T04:23:38.941Z,34.77
2018-06-05T04:26:07.794Z,32.13
2018-06-05T04:28:36.754Z,32.77
2018-06-05T04:31:05.478Z,30.40
2018-06-05T04:33:34.369Z,30.60
2018-06-05T04:36:03.034Z,31.90
2018-06-05T04:38:31.641Z,29.80
2018-06-05T04:41:00.517Z,31.50
2018-06-05T04:43:29.523Z,29.73
2018-06-05T04:45:58.503Z,29.87
2018-06-05T04:48:27.495Z,31.40
2018-06-05T04:50:56.225Z,28.27
2018-06-05T04:53:24.809Z,27.97
2018-06-05T04:55:53.414Z,30.10
2018-06-05T04:58:22.255Z,27.60
2018-06-05T05:00:51.538Z,29.57
2018-06-05T05:03:20.313Z,29.60
2018-06-05T05:05:48.891Z,27.33
2018-06-05T05:08:17.742Z,28.63
2018-06-05T05:10:46.473Z,27.10
2018-06-05T05:13:15.046Z,26.13
2018-06-05T05:15:43.878Z,28.43
2018-06-05T05:18:12.841Z,28.20
2018-06-05T05:20:41.546Z,28.40
2018-06-05T05:23:10.382Z,24.93
2018-06-05T05:25:39.350Z,26.20
2018-06-05T05:28:08.094Z,26.50
2018-06-05T05:30:36.925Z,27.00
2018-06-05T05:33:05.642Z,24.63
2018-06-05T05:35:34.247Z,27.17
2018-06-05T05:38:03.103Z,26.40
2018-06-05T05:40:32.083Z,27.10
2018-06-05T05:43:00.842Z,26.50
2018-06-05T05:45:29.664Z,26.67
2018-06-05T05:47:58.379Z,28.30
2018-06-05T05:50:26.990Z,27.67
2018-06-05T05:52:55.838Z,27.93
2018-06-05T05:55:24.559Z,30.33
2018-06-05T05:57:53.182Z,30.50
2018-06-05T06:00:21.790Z,30.67
2018-06-05T06:02:50.599Z,30.63
2018-06-05T06:05:19.305Z,28.37
2018-06-05T06:07:47.907Z,29.97
2018-06-05T06:10:16.747Z,30.10
2018-06-05T06:12:45.452Z,29.03
2018-06-05T06:15:14.042Z,29.37
2018-06-05T06:17:42.883Z,29.30
2018-06-05T06:20:11.850Z,30.70
2018-06-05T06:22:40.799Z,28.80
2018-06-05T06:25:09.546Z,26.77
2018-06-05T06:27:38.336Z,30.77
2018-06-05T06:30:07.286Z,32.10
2018-06-05T06:32:36.022Z,29.50
2018-06-05T06:35:04.678Z,28.80
2018-06-05T06:37:33.297Z,26.90
2018-06-05T06:40:02.140Z,30.03
2018-06-05T06:42:31.095Z,28.20
2018-06-05T06:45:00.055Z,28.10
2018-06-05T06:47:29.011Z,26.70
2018-06-05T06:49:57.741Z,27.13
2018-06-05T06:52:26.613Z,26.40
2018-06-05T06:54:55.311Z,27.70
2018-06-05T06:57:23.910Z,26.93
2018-06-05T06:59:53.759Z,26.90
2018-06-05T07:02:22.498Z,26.10
2018-06-05T07:04:51.314Z,28.73
2018-06-05T07:07:20.017Z,28.93
2018-06-05T07:09:48.665Z,28.07
2018-06-05T07:12:17.515Z,30.20
2018-06-05T07:14:46.214Z,31.63
2018-06-05T07:17:14.806Z,31.73
2018-06-05T07:19:43.409Z,29.67
2018-06-05T07:22:12.270Z,31.97
2018-06-05T07:24:41.006Z,33.13
2018-06-05T07:27:09.840Z,37.33
2018-06-05T07:29:38.794Z,35.40
2018-06-05T07:32:07.509Z,35.97
2018-06-05T07:34:36.335Z,36.97
2018-06-05T07:37:05.312Z,37.40
2018-06-05T07:39:34.269Z,41.57
2018-06-05T07:42:03.635Z,42.60
2018-06-05T07:44:32.630Z,41.63
2018-06-05T07:47:01.571Z,40.87
2018-06-05T07:49:30.275Z,40.33
2018-06-05T07:51:59.111Z,41.60
2018-06-05T07:54:28.079Z,40.27
2018-06-05T07:56:57.051Z,40.50
2018-06-05T07:59:26.027Z,35.90
2018-06-05T08:01:54.751Z,32.60
2018-06-05T08:04:23.603Z,31.50
2018-06-05T08:06:52.539Z,29.53
2018-06-05T08:09:21.303Z,30.47
2018-06-05T08:11:50.198Z,29.33
2018-06-05T08:14:18.860Z,29.20
2018-06-05T08:16:47.446Z,33.20
2018-06-05T08:19:16.287Z,33.67
2018-06-05T08:21:45.258Z,36.03
2018-06-05T08:24:13.966Z,37.40
2018-06-05T08:26:51.399Z,36.07
2018-06-05T08:29:20.490Z,33.73
2018-06-05T08:31:49.335Z,32.60
2018-06-05T08:34:18.074Z,32.70
2018-06-05T08:36:46.931Z,28.77
2018-06-05T08:39:15.898Z,29.00
2018-06-05T08:41:44.638Z,29.67
2018-06-05T08:44:13.467Z,33.33
2018-06-05T08:46:42.422Z,35.07
2018-06-05T08:49:11.210Z,39.57
2018-06-05T08:51:40.051Z,40.87
2018-06-05T08:54:08.801Z,41.20
2018-06-05T08:56:37.401Z,40.73
2018-06-05T08:59:06.306Z,38.77
2018-06-05T09:01:35.065Z,41.07
2018-06-05T09:04:03.638Z,41.77
2018-06-05T09:06:32.455Z,42.30
2018-06-05T09:09:01.199Z,42.20
2018-06-05T09:11:29.801Z,43.70
2018-06-05T09:13:58.386Z,45.80
2018-06-05T09:16:27.279Z,45.27
2018-06-05T09:18:56.030Z,45.23
2018-06-05T09:21:24.887Z,41.47
2018-06-05T09:23:53.842Z,43.80
2018-06-05T09:26:22.578Z,45.20
2018-06-05T09:28:51.414Z,44.77
2018-06-05T09:31:20.395Z,46.80
2018-06-05T09:33:49.106Z,46.87
2018-06-05T09:36:17.954Z,47.60
2018-06-05T09:38:46.695Z,47.93
2018-06-05T09:41:15.306Z,48.57
2018-06-05T09:43:43.890Z,43.40
2018-06-05T09:46:12.491Z,42.77
2018-06-05T09:48:41.105Z,47.70
2018-06-05T09:51:11.918Z,42.20
2018-06-05T09:53:42.267Z,48.07
2018-06-05T09:56:10.991Z,51.30
2018-06-05T09:58:39.594Z,51.20
2018-06-05T10:01:08.274Z,47.80
2018-06-05T10:03:37.122Z,45.67
2018-06-05T10:06:05.886Z,51.67
2018-06-05T10:08:34.477Z,50.10
2018-06-05T10:11:03.364Z,52.57
2018-06-05T10:13:32.347Z,50.00
2018-06-05T10:16:01.424Z,52.87
2018-06-05T10:18:30.146Z,51.27
2018-06-05T10:20:58.754Z,47.90
2018-06-05T10:23:27.399Z,54.60
2018-06-05T10:25:56.193Z,54.13
2018-06-05T10:28:24.898Z,52.80
2018-06-05T10:30:53.500Z,49.53
2018-06-05T10:33:22.322Z,49.57
2018-06-05T10:35:51.262Z,49.77
2018-06-05T10:38:19.981Z,47.77
2018-06-05T10:40:48.874Z,49.67
2018-06-05T10:43:17.622Z,46.80
2018-06-05T10:45:46.257Z,51.03
2018-06-05T10:48:15.104Z,45.10
2018-06-05T10:50:43.886Z,47.40
2018-06-05T10:53:12.477Z,48.93
2018-06-05T10:55:41.161Z,49.97
2018-06-05T10:58:10.063Z,49.03
2018-06-05T11:00:38.894Z,50.43
2018-06-05T11:03:07.763Z,50.63
2018-06-05T11:05:36.532Z,50.97
2018-06-05T11:08:05.154Z,50.20
2018-06-05T11:10:33.755Z,53.27
2018-06-05T11:13:02.666Z,50.83
2018-06-05T11:15:31.402Z,49.60
2018-06-05T11:18:00.282Z,49.17
2018-06-05T11:20:29.259Z,48.33
2018-06-05T11:22:58.006Z,48.50
2018-06-05T11:25:26.867Z,52.17
2018-06-05T11:27:55.590Z,51.20
2018-06-05T11:30:24.193Z,51.90
2018-06-05T11:32:53.042Z,52.30
2018-06-05T11:35:21.995Z,52.23
2018-06-05T11:37:50.726Z,51.23
2018-06-05T11:40:19.559Z,51.03
2018-06-05T11:42:48.322Z,47.47
2018-06-05T11:45:16.986Z,47.17
2018-06-05T11:47:45.878Z,48.60
2018-06-05T11:50:14.670Z,50.57
2018-06-05T11:52:43.422Z,49.70
2018-06-05T11:55:12.396Z,49.70
2018-06-05T11:57:41.127Z,55.30
2018-06-05T12:00:09.771Z,55.30
2018-06-05T12:02:38.490Z,53.03
2018-06-05T12:05:07.527Z,52.93
2018-06-05T12:07:36.587Z,53.40
2018-06-05T12:10:05.406Z,52.80
2018-06-05T12:12:34.011Z,54.90
2018-06-05T12:15:02.808Z,57.37
2018-06-05T12:17:31.786Z,52.60
2018-06-05T12:20:00.494Z,52.17
2018-06-05T12:22:29.338Z,48.73
2018-06-05T12:24:58.922Z,48.37
2018-06-05T12:27:27.884Z,46.07
2018-06-05T12:29:56.616Z,45.97
2018-06-05T12:32:25.230Z,47.67
2018-06-05T12:34:53.830Z,45.67
2018-06-05T12:37:22.451Z,50.20
2018-06-05T12:39:51.070Z,46.97
2018-06-05T12:42:19.727Z,45.90
2018-06-05T12:44:48.598Z,48.43
2018-06-05T12:47:17.310Z,48.53
2018-06-05T12:49:45.910Z,48.40
2018-06-05T12:52:14.722Z,49.47
2018-06-05T12:54:43.447Z,45.90
2018-06-05T12:57:12.094Z,45.47
2018-06-05T12:59:40.689Z,49.67
2018-06-05T13:02:09.290Z,48.53
2018-06-05T13:04:37.898Z,48.97
2018-06-05T13:07:06.510Z,46.43
2018-06-05T13:09:35.390Z,48.97
2018-06-05T13:12:04.360Z,48.77
2018-06-05T13:14:33.098Z,48.20
2018-06-05T13:17:01.926Z,48.03
2018-06-05T13:19:30.639Z,51.53
2018-06-05T13:21:59.238Z,50.20
2018-06-05T13:24:28.082Z,46.50
2018-06-05T13:27:06.150Z,51.27
2018-06-05T13:29:34.901Z,50.10
2018-06-05T13:32:03.559Z,51.60
2018-06-05T13:34:32.400Z,54.50
2018-06-05T13:37:01.379Z,51.20
2018-06-05T13:39:30.102Z,52.83
2018-06-05T13:41:58.976Z,53.00
2018-06-05T13:44:27.746Z,54.00
2018-06-05T13:46:56.378Z,57.97
2018-06-05T13:49:25.222Z,54.50
2018-06-05T13:51:54.231Z,51.93
2018-06-05T13:54:23.236Z,56.73
2018-06-05T13:56:52.206Z,55.30
2018-06-05T13:59:20.937Z,55.10
2018-06-05T14:01:49.780Z,53.67
2018-06-05T14:04:18.547Z,54.47
2018-06-05T14:06:47.136Z,54.57
2018-06-05T14:09:16.164Z,52.90
2018-06-05T14:11:45.097Z,52.47
2018-06-05T14:14:13.830Z,52.30
2018-06-05T14:16:42.673Z,55.60
2018-06-05T14:19:11.390Z,55.37
2018-06-05T14:21:39.981Z,51.13
2018-06-05T14:24:08.834Z,52.70
2018-06-05T14:26:37.541Z,52.73
2018-06-05T14:29:06.138Z,51.47
2018-06-05T14:31:34.983Z,51.60
2018-06-05T14:34:03.951Z,50.17
2018-06-05T14:36:32.759Z,45.40
2018-06-05T14:39:01.685Z,46.33
2018-06-05T14:41:30.458Z,44.80
2018-06-05T14:43:59.067Z,40.03
2018-06-05T14:46:27.979Z,37.97
2018-06-05T14:48:57.027Z,41.70
2018-06-05T14:51:26.087Z,38.03
2018-06-05T14:53:56.010Z,41.07
2018-06-05T14:56:25.115Z,41.70
2018-06-05T14:58:54.210Z,42.87
2018-06-05T15:01:23.268Z,40.20
2018-06-05T15:03:51.986Z,36.57
2018-06-05T15:06:20.939Z,41.03
2018-06-05T15:08:49.671Z,38.07
2018-06-05T15:11:18.265Z,30.67
2018-06-05T15:13:46.874Z,25.77
2018-06-05T15:16:15.747Z,28.27
2018-06-05T15:18:44.470Z,27.93
2018-06-05T15:21:13.294Z,29.90
2018-06-05T15:23:42.282Z,31.10
2018-06-05T15:26:11.301Z,32.30
2018-06-05T15:28:40.246Z,37.80
2018-06-05T15:31:08.995Z,36.60
2018-06-05T15:33:37.827Z,35.47
2018-06-05T15:36:06.788Z,32.13
2018-06-05T15:38:35.543Z,30.70
2018-06-05T15:41:04.426Z,30.77
2018-06-05T15:43:33.166Z,29.20
2018-06-05T15:46:01.827Z,31.30
2018-06-05T15:48:30.803Z,32.30
2018-06-05T15:50:59.550Z,30.90
2018-06-05T15:53:28.253Z,28.73
2018-06-05T15:55:57.031Z,28.67
2018-06-05T15:58:25.789Z,25.97
2018-06-05T16:00:54.428Z,28.43
2018-06-05T16:03:23.319Z,28.63
2018-06-05T16:05:52.108Z,30.20
2018-06-05T16:08:20.818Z,24.43
2018-06-05T16:10:49.438Z,23.77
2018-06-05T16:13:18.343Z,25.00
2018-06-05T16:15:47.180Z,22.87
2018-06-05T16:18:16.050Z,23.87
2018-06-05T16:20:44.821Z,21.93
2018-06-05T16:23:13.467Z,22.60
2018-06-05T16:25:42.347Z,23.10
2018-06-05T16:28:11.115Z,22.97
2018-06-05T16:30:39.766Z,24.10
2018-06-05T16:33:08.574Z,22.90
2018-06-05T16:35:37.507Z,26.37
2018-06-05T16:38:06.237Z,27.70
2018-06-05T16:40:35.174Z,27.90
2018-06-05T16:43:03.958Z,25.97
2018-06-05T16:45:32.770Z,25.43
2018-06-05T16:48:01.419Z,24.93
2018-06-05T16:50:30.038Z,24.50
2018-06-05T16:52:58.726Z,27.27
2018-06-05T16:55:27.635Z,25.07
2018-06-05T16:57:56.378Z,26.70
2018-06-05T17:00:25.007Z,23.60
2018-06-05T17:02:53.959Z,23.57
2018-06-05T17:05:22.696Z,25.00
2018-06-05T17:07:51.309Z,27.17
2018-06-05T17:10:20.203Z,24.53
2018-06-05T17:12:48.980Z,26.00
2018-06-05T17:15:17.575Z,26.07
2018-06-05T17:17:46.435Z,26.17
2018-06-05T17:20:15.430Z,26.27
2018-06-05T17:22:44.209Z,27.60
2018-06-05T17:25:12.977Z,27.03
2018-06-05T17:27:41.955Z,27.63
2018-06-05T17:30:10.934Z,26.43
2018-06-05T17:32:39.952Z,26.73
2018-06-05T17:35:08.648Z,24.97
2018-06-05T17:37:37.510Z,23.77
2018-06-05T17:40:06.258Z,26.53
2018-06-05T17:42:34.889Z,24.90
2018-06-05T17:45:03.743Z,152.77
2018-06-05T17:47:32.744Z,36.53
2018-06-05T17:50:01.520Z,26.30
2018-06-05T17:52:30.349Z,24.37
2018-06-05T17:54:59.098Z,27.37
2018-06-05T17:57:28.358Z,27.00
2018-06-05T17:59:57.205Z,26.50
2018-06-05T18:02:25.933Z,28.70
2018-06-05T18:04:54.515Z,26.40
2018-06-05T18:07:23.355Z,26.13
2018-06-05T18:09:52.088Z,27.67
2018-06-05T18:12:20.997Z,29.13
2018-06-05T18:14:49.949Z,28.07
2018-06-05T18:17:18.747Z,27.83
2018-06-05T18:19:47.613Z,30.27
2018-06-05T18:22:16.306Z,27.23
2018-06-05T18:24:44.930Z,25.57
2018-06-05T18:27:13.750Z,26.00
2018-06-05T18:29:42.483Z,27.60
2018-06-05T18:32:11.094Z,28.37
2018-06-05T18:34:39.952Z,28.90
2018-06-05T18:37:08.960Z,28.23
2018-06-05T18:39:37.655Z,29.13
2018-06-05T18:42:06.257Z,27.77
2018-06-05T18:44:35.095Z,26.57
2018-06-05T18:47:03.846Z,26.83
2018-06-05T18:49:32.722Z,29.87
2018-06-05T18:52:01.584Z,28.60
2018-06-05T18:54:30.210Z,26.70
2018-06-05T18:56:59.039Z,29.57
2018-06-05T18:59:28.101Z,29.10
2018-06-05T19:01:57.419Z,28.90
2018-06-05T19:04:26.149Z,30.50
2018-06-05T19:06:54.735Z,29.13
2018-06-05T19:09:23.321Z,29.67
2018-06-05T19:11:52.181Z,29.97
2018-06-05T19:14:20.887Z,28.60
2018-06-05T19:16:49.743Z,29.43
2018-06-05T19:19:18.531Z,26.10
2018-06-05T19:21:47.146Z,29.73
2018-06-05T19:24:16.039Z,28.97
2018-06-05T19:26:44.959Z,28.97
2018-06-05T19:29:13.798Z,29.60
2018-06-05T19:31:42.595Z,26.00
2018-06-05T19:34:11.583Z,25.90
2018-06-05T19:36:40.553Z,27.30
2018-06-05T19:39:09.619Z,26.17
2018-06-05T19:41:38.366Z,26.47
2018-06-05T19:44:07.215Z,28.63
2018-06-05T19:46:35.950Z,25.40
2018-06-05T19:49:04.538Z,26.30
2018-06-05T19:51:33.139Z,25.97
2018-06-05T19:54:02.005Z,24.00
2018-06-05T19:56:30.735Z,26.10
2018-06-05T19:58:59.584Z,24.60
2018-06-05T20:01:28.840Z,25.20
2018-06-05T20:03:57.835Z,25.80
2018-06-05T20:06:27.434Z,25.60
2018-06-05T20:08:56.426Z,25.27
2018-06-05T20:11:25.133Z,25.70
2018-06-05T20:13:53.743Z,26.03
2018-06-05T20:16:22.615Z,24.50
2018-06-05T20:18:51.634Z,26.03
2018-06-05T20:21:20.647Z,25.73
2018-06-05T20:23:49.618Z,26.10
2018-06-05T20:26:18.338Z,25.10
2018-06-05T20:28:46.993Z,24.47
2018-06-05T20:31:15.784Z,27.47
2018-06-05T20:33:44.492Z,47.40
2018-06-05T20:36:13.331Z,32.77
2018-06-05T20:38:42.323Z,28.13
2018-06-05T20:41:11.034Z,25.67
2018-06-05T20:43:39.875Z,27.30
2018-06-05T20:46:08.815Z,27.40
2018-06-05T20:48:37.778Z,27.53
2018-06-05T20:51:06.761Z,27.90
2018-06-05T20:53:35.508Z,27.83
2018-06-05T20:56:04.105Z,29.27
2018-06-05T20:58:32.931Z,26.07
2018-06-05T21:01:01.655Z,27.53
2018-06-05T21:03:30.517Z,29.53
2018-06-05T21:05:59.270Z,27.40
2018-06-05T21:08:27.871Z,29.17
2018-06-05T21:10:56.481Z,28.73
2018-06-05T21:13:25.339Z,29.67
2018-06-05T21:15:54.062Z,27.97
2018-06-05T21:18:22.734Z,27.30
2018-06-05T21:20:51.595Z,29.73
2018-06-05T21:23:20.343Z,28.97
2018-06-05T21:25:48.966Z,28.07
2018-06-05T21:28:17.828Z,30.10
2018-06-05T21:30:46.780Z,29.00
2018-06-05T21:33:15.516Z,30.53
2018-06-05T21:35:44.362Z,29.80
2018-06-05T21:38:13.125Z,30.07
2018-06-05T21:40:41.759Z,30.43
2018-06-05T21:43:10.378Z,29.20
2018-06-05T21:45:39.263Z,28.77
2018-06-05T21:48:07.999Z,31.00
2018-06-05T21:50:36.847Z,31.43
2018-06-05T21:53:05.570Z,30.20
2018-06-05T21:55:34.174Z,28.57
2018-06-05T21:58:03.049Z,29.77
2018-06-05T22:00:32.052Z,30.40
2018-06-05T22:03:00.767Z,30.13
2018-06-05T22:05:29.606Z,29.67
2018-06-05T22:07:58.592Z,30.00
2018-06-05T22:10:27.547Z,30.03
2018-06-05T22:12:56.519Z,29.07
2018-06-05T22:15:25.250Z,30.20
2018-06-05T22:17:54.068Z,30.97
2018-06-05T22:20:23.025Z,29.70
2018-06-05T22:22:52.051Z,31.03
2018-06-05T22:25:20.995Z,31.37
2018-06-05T22:27:49.739Z,32.90
2018-06-05T22:30:18.649Z,34.10
2018-06-05T22:32:47.542Z,29.20
2018-06-05T22:35:16.283Z,31.67
2018-06-05T22:37:45.162Z,33.03
2018-06-05T22:40:13.891Z,30.83
2018-06-05T22:42:42.502Z,31.77
2018-06-05T22:45:11.298Z,33.07
2018-06-05T22:47:40.242Z,32.93
2018-06-05T22:50:08.996Z,33.50
2018-06-05T22:52:37.819Z,32.30
2018-06-05T22:55:06.566Z,33.40
2018-06-05T22:57:35.167Z,33.60
2018-06-05T23:00:03.992Z,32.50
2018-06-05T23:02:32.501Z,34.63
2018-06-05T23:05:01.095Z,35.77
2018-06-05T23:07:29.683Z,34.73
2018-06-05T23:09:58.542Z,36.00
2018-06-05T23:12:27.255Z,36.70
2018-06-05T23:14:55.882Z,36.60
2018-06-05T23:17:24.746Z,36.50
2018-06-05T23:19:53.742Z,35.87
2018-06-05T23:22:22.739Z,36.20
2018-06-05T23:24:51.747Z,34.97
2018-06-05T23:27:20.481Z,35.70
2018-06-05T23:29:49.114Z,35.97
2018-06-05T23:32:17.949Z,32.37
2018-06-05T23:34:46.649Z,35.30
2018-06-05T23:37:15.463Z,36.30
2018-06-05T23:39:44.207Z,34.70
2018-06-05T23:53:52.175Z,34.60
2018-06-05T23:56:21.153Z,37.70
2018-06-05T23:58:49.808Z,36.80
